Tiempo atmosférico en la estación meteorológica de Estaca De Bares, A Coruña (80 m.)



Fecha
DESCASC
Temp. máxima en grados centígrados (hora)
DESCASC
Temp. mínima en grados centígrados (hora)
DESCASC
Temp. media en grados centígrados
DESCASC
Racha de viento máxima en m/sg (hora)
DESCASC
Velocidad máxima media en intervalos de 10 minutos(hora)
DESCASC
Precipitaciones diarias en mm
DESCASC
Precipitaciones de 00:00 a 06:00 en mm
DESCASC
Precipitaciones de 06:00 a 12:00 en mm
DESCASC
Precipitaciones de 12:00 a 18:00 en mm
DESCASC
Precipitaciones de 18:00 a 24:00 en mm
DESCASC
20-05-2018 17.4 (14:10) 13 (04:30) 15.2 11.94 (09:30) 9.72 (07:40) 0 0 0 0 0
19-05-2018 17.6 (16:30) 13.8 (05:50) 15.7 15.83 (00:40) 11.11 (01:40) 0 0 0 0 0
18-05-2018 15.9 (15:50) 13.1 (00:00) 14.5 14.72 (21:20) 10 (21:50) 0 0 0 0 0
17-05-2018 16.2 (16:10) 12.5 (00:00) 14.4 13.61 (00:10) 10 (00:10) 0 0 0 0 0
16-05-2018 16.2 (15:10) 12.2 (00:00) 14.2 13.33 (22:40) 10.83 (20:50) 0 0 0 0 0
15-05-2018 15.8 (13:50) 11.5 (00:00) 13.7 11.39 (23:59) 8.89 (23:59) 0 0 0 0 0
14-05-2018 16.3 (15:30) 11.6 (00:00) 13.9 14.72 (00:30) 13.33 (00:30) 2.4 1.8 0.6 0 0
13-05-2018 13.4 (13:20) 9 (00:00) 11.2 16.11 (14:40) 14.17 (16:20) 4.2 0.6 3.2 0 0.4
12-05-2018 13.8 (14:40) 7.3 (00:00) 10.6 26.94 (08:40) 23.61 (08:40) 3.6 0.8 2 0 0.8
11-05-2018 16.2 (13:40) 10.5 (23:30) 13.4 17.78 (10:00) 15 (05:50) 1 0 0 1 0
10-05-2018 14.9 (13:20) 11.5 (00:00) 13.2 15.83 (20:00) 12.78 (20:00) 0.2 0.2 0 0 0
09-05-2018 16.1 (15:50) 11.8 (00:00) 14 12.78 (23:40) 10.56 (18:10) 0.8 0.2 0 0 0.6
08-05-2018 17.9 (14:40) 11.8 (00:00) 14.8 9.44 (11:50) 7.78 (11:50) 0.2 0 0 0 0.2
07-05-2018 16.6 (14:40) 13.2 (00:00) 14.9 8.33 (03:30) 7.22 (03:40) 0 0 0 0 0
06-05-2018 16.5 (17:00) 12.6 (00:00) 14.6 13.06 (00:30) 10.28 (01:10) 0 0 0 0 0
05-05-2018 15.3 (15:30) 11.7 (00:00) 13.5 16.39 (02:40) 12.5 (02:40) 0 0 0 0 0
04-05-2018 14.5 (14:00) 11 (00:00) 12.8 17.22 (21:20) 13.06 (20:40) 0 0 0 0 0
03-05-2018 13.9 (13:10) 10.7 (00:00) 12.3 10.56 (23:40) 8.61 (23:59) 0 0 0 0 0
02-05-2018 16.2 (13:10) 10.1 (00:00) 13.2 21.11 (07:20) 16.67 (05:10) 4.2 0.2 0 0 4
01-05-2018 15.8 (12:10) 8.6 (04:10) 12.2 18.33 (16:40) 16.11 (16:40) 0 0 0 0 0
30-04-2018 13.9 (14:00) 7.8 (00:00) 10.8 13.89 (03:40) 11.94 (03:40) 2.2 1.8 0.4 0 0
29-04-2018 12.5 (12:30) 8.2 (00:00) 10.3 13.61 (19:30) 11.11 (19:40) 7.2 0 0.2 6 1
28-04-2018 15.1 (15:30) 9.1 (00:00) 12.1 8.61 (20:40) 6.67 (21:30) 0 0 0 0 0
27-04-2018 15.2 (15:50) 10.5 (00:00) 12.8 20.28 (05:40) 18.33 (05:40) 0.4 0.4 0 0 0
26-04-2018 15.2 (15:10) 11.2 (00:00) 13.2 11.11 (14:30) 8.33 (23:50) 0 0 0 0 0
25-04-2018 16 (16:50) 11.3 (00:00) 13.7 10.83 (10:10) 6.94 (10:10) 0.6 0 0.6 0 0
24-04-2018 14.1 (14:20) 12.5 (00:00) 13.3 12.78 (00:10) 10 (03:50) 0 0 0 0 0
23-04-2018 13.6 (13:50) 11.4 (00:00) 12.5 13.33 (21:00) 10.28 (16:10) 0 0 0 0 0
22-04-2018 15.9 (03:10) 11.5 (00:00) 13.7 11.67 (05:10) 10.28 (05:10) 0 0 0 0 0

Gráficas

Temp. máximas Temp. mínimas Temp. medias Precipitaciones Rachas de viento máximas Velocidades máximas media en intervalos de 10 minutos

Datos horarios

Fecha y hora oficial Temperatura (ºC) Velocidad del viento (km/h) Dirección del viento Racha (km/h) Dirección de racha Precipitación (mm) Presión (hPa) Tendencia (hPa) Humedad (%)
2018-05-21 23:00:00 14.3 14 Este 21 Este 0 1003 1.2 87
2018-05-21 22:00:00 14.6 13 Este 19 Este 0 1002.5 1.1 84
2018-05-21 21:00:00 15.9 12 Este 17 Este 0 1002.1 1 80
2018-05-21 20:00:00 16.8 12 Este 22 Este 0 1001.8 0.7 78
2018-05-21 19:00:00 16.8 18 Este 26 Este 0 1001.4 0.3 78
2018-05-21 18:00:00 16.7 22 Este 30 Este 0 1001.1 0.1 78
2018-05-21 17:00:00 17.2 20 Este 27 Este 0 1001.1 -0.1 77
2018-05-21 16:00:00 17.7 16 Este 28 Este 0 1001.1 -0.3 75
2018-05-21 15:00:00 17.7 18 Este 31 Este 0 1001 -0.4 76
2018-05-21 14:00:00 17.6 23 Este 30 Este 0 1001.2 0.1 75
2018-05-21 13:00:00 17.8 14 Este 23 Este 0 1001.4 0.4 75
2018-05-21 12:00:00 17.7 14 Este 27 Este 0 1001.4 0.9 76
2018-05-21 11:00:00 16.2 22 Sudeste 30 Este 0 1001.1 0.8 78
2018-05-21 10:00:00 15.3 23 Sudeste 30 Sudeste 0 1001 1.2 81
2018-05-21 09:00:00 14.6 21 Sudeste 28 Este 0 1000.5 0.7 85
2018-05-21 08:00:00 13.9 21 Sudeste 34 Sudeste 0 1000.3 0.3 87
2018-05-21 07:00:00 13.7 25 Sudeste 35 Sudeste 0 999.8 -0.6 89
2018-05-21 06:00:00 14.1 24 Este 39 Este 0 999.8 -1.1 90
2018-05-21 05:00:00 14 24 Este 37 Este 0 1000 -1.5 89
2018-05-21 04:00:00 14.1 28 Este 42 Este 0 1000.4 -1.7 89
2018-05-21 03:00:00 14.1 32 Sudeste 41 Este 0 1000.9 -1.7 89
2018-05-21 02:00:00 14.1 30 Este 39 Este 0 1001.5 -1.3 89
2018-05-21 01:00:00 14.2 26 Este 36 Este 0 1002.1 -0.4 89
2018-05-21 00:00:00 14.1 23 Este 34 Sudeste 0 1002.6 -0.1 88
2018-05-20 23:00:00 14.4 28 Este 35 Este 0 1002.8 -0.1 87
2018-05-20 22:00:00 14.5 27 Este 32 Este 0 1002.5 -0.8 87
2018-05-20 21:00:00 15.2 25 Este 30 Este 0 1002.7 -0.9 85
2018-05-20 20:00:00 15.7 19 Este 30 Este 0 1002.9 -0.9 83
2018-05-20 19:00:00 15.9 23 Este 33 Este 0 1003.3 -1.2 82
2018-05-20 18:00:00 16.4 17 Este 37 Este 0 1003.6 -1.5 80
2018-05-20 17:00:00 16.4 28 Este 41 Este 0 1003.8 -1.7 78
2018-05-20 16:00:00 16.4 30 Este 41 Este 0 1004.5 -1.3 78
2018-05-20 15:00:00 17.1 24 Este 36 Este 0 1005.1 -0.9 72
2018-05-20 14:00:00 17.2 25 Este 40 Este 0 1005.5 -0.6 75
2018-05-20 13:00:00 16.6 27 Este 42 Este 0 1005.8 -0.5 76
2018-05-20 12:00:00 16 32 Este 41 Sudeste 0 1006 -0.3 77
2018-05-20 11:00:00 15.6 32 Este 42 Sudeste 0 1006.1 -0.3 79
2018-05-20 10:00:00 15.1 29 Este 43 Sudeste 0 1006.3 0 80
2018-05-20 09:00:00 14.5 32 Este 43 Este 0 1006.3 -0.2 81
2018-05-20 08:00:00 13.8 33 Este 42 Este 0 1006.4 -0.2 85
2018-05-20 07:00:00 13.4 28 Este 40 Este 0 1006.3 -0.5 87
2018-05-20 06:00:00 13.3 25 Este 36 Este 0 1006.5 -1 88
2018-05-20 05:00:00 13.1 24 Sudeste 31 Sudeste 0 1006.6 -1.3 87
2018-05-20 04:00:00 13.2 24 Sudeste 29 Sudeste 0 1006.8 -1.5 87
2018-05-20 03:00:00 13.5 24 Sudeste 30 Este 0 1007.5 -1 88
2018-05-20 02:00:00 13.8 24 Este 34 Sudeste 0 1007.9 -0.5 88
2018-05-20 01:00:00 13.8 25 Este 34 Este 0 1008.3 0.3 87
2018-05-20 00:00:00 14 24 Este 33 Este 0 1008.5 0.6 88
2018-05-19 23:00:00 14.1 21 Este 31 Este 0 1008.4 0.4 88
2018-05-19 22:00:00 14.5 26 Este 32 Sudeste 0 1008 -0.4 87
2018-05-19 21:00:00 15.3 23 Este 31 Este 0 1007.9 -0.6 84
2018-05-19 20:00:00 15.9 24 Este 32 Sudeste 0 1008 -0.5 82
2018-05-19 19:00:00 16.3 23 Este 30 Sudeste 0 1008.4 -0.4 81
2018-05-19 18:00:00 16.8 21 Este 31 Este 0 1008.5 -0.5 80
2018-05-19 17:00:00 17.3 23 Este 32 Este 0 1008.5 -0.6 77
2018-05-19 16:00:00 17.1 23 Este 32 Sudeste 0 1008.8 -0.3 78
2018-05-19 15:00:00 16.5 27 Este 36 Sudeste 0 1009 0 78
2018-05-19 14:00:00 16.3 27 Sudeste 36 Este 0 1009.1 0 79
2018-05-19 13:00:00 16.3 29 Este 41 Este 0 1009.1 0 81
2018-05-19 12:00:00 15.7 34 Este 42 Sudeste 0 1009 0.3 81
2018-05-19 11:00:00 15.1 31 Este 40 Este 0 1009.1 0.9 84
2018-05-19 10:00:00 14.5 31 Este 45 Este 0 1009.1 1.3 86
2018-05-19 09:00:00 14.2 32 Este 42 Este 0 1008.7 0.9 88
2018-05-19 08:00:00 14.1 33 Este 41 Sudeste 0 1008.2 0.6 88
2018-05-19 07:00:00 13.9 36 Este 47 Este 0 1007.8 0.2 88
2018-05-19 06:00:00 13.8 32 Este 46 Este 0 1007.8 -0.4 88
2018-05-19 05:00:00 14 31 Este 46 Este 0 1007.6 -0.9 88
2018-05-19 04:00:00 14.1 37 Este 48 Sudeste 0 1007.6 -1 88
2018-05-19 03:00:00 14.2 33 Este 46 Este 0 1008.2 -0.6 87
2018-05-19 02:00:00 14.3 32 Este 51 Este 0 1008.5 -0.1 86
2018-05-19 01:00:00 14.4 37 Este 57 Este 0 1008.6 0.5 86
2018-05-19 00:00:00 14.4 32 Este 48 Este 0 1008.8 0.9 86
2018-05-18 23:00:00 14.4 31 Este 49 Este 0 1008.6 0.7 87
2018-05-18 22:00:00 14.2 36 Este 53 Este 0 1008.1 0 86
2018-05-18 21:00:00 14.4 33 Este 47 Este 0 1007.9 -0.2 86
2018-05-18 20:00:00 14.9 28 Este 41 Este 0 1007.9 -0.1 85
2018-05-18 19:00:00 15.1 28 Este 40 Este 0 1008.1 0.1 84
2018-05-18 18:00:00 15.3 29 Este 41 Este 0 1008.1 -0.2 84
2018-05-18 17:00:00 15.8 30 Este 40 Este 0 1008 -0.8 82
2018-05-18 16:00:00 15.7 30 Este 40 Nordeste 0 1008 -1.2 83
2018-05-18 15:00:00 15.3 29 Este 36 Este 0 1008.3 -0.9 84
2018-05-18 14:00:00 14.7 29 Este 37 Este 0 1008.8 -0.3 86
2018-05-18 13:00:00 14.4 29 Este 40 Este 0 1009.2 0 87
2018-05-18 12:00:00 14.2 35 Este 44 Este 0 1009.2 0.3 87
2018-05-18 11:00:00 14.5 30 Este 38 Este 0 1009.1 0.2 87
2018-05-18 10:00:00 14.2 28 Este 39 Este 0 1009.2 0.7 87
2018-05-18 09:00:00 13.6 22 Este 32 Este 0 1008.9 0.8 88
2018-05-18 08:00:00 13.1 21 Este 29 Sudeste 0 1008.9 0.7 88
2018-05-18 07:00:00 13.5 22 Sudeste 33 Este 0 1008.5 0.4 85
2018-05-18 06:00:00 13.9 28 Este 36 Este 0 1008.1 0 85
2018-05-18 05:00:00 13.9 21 Este 34 Este 0 1008.2 -0.4 83
2018-05-18 04:00:00 13.8 28 Este 37 Este 0 1008.1 -0.6 84
2018-05-18 03:00:00 14 31 Este 36 Este 0 1008.1 -0.6 86
2018-05-18 02:00:00 14.3 25 Este 34 Este 0 1008.6 0.1 85
2018-05-18 01:00:00 14 26 Este 31 Este 0 1008.7 1 84
2018-05-18 00:00:00 13.9 19 Este 27 Sudeste 0 1008.7 1.1 83
2018-05-17 23:00:00 13.8 22 Sudeste 30 Sudeste 0 1008.5 0.5 84
2018-05-17 22:00:00 13.7 24 Sudeste 36 Este 0 1007.7 0 83
2018-05-17 21:00:00 13.8 26 Este 33 Sudeste 0 1007.6 -0.4 83
2018-05-17 20:00:00 14.1 18 Este 30 Este 0 1008 0 79
2018-05-17 19:00:00 14.9 22 Este 32 Este 0 1007.7 -0.5 75
2018-05-17 18:00:00 15.1 27 Este 34 Este 0 1008 -0.6 75
2018-05-17 17:00:00 15.4 21 Este 29 Este 0 1008 -0.7 73
2018-05-17 16:00:00 16.1 17 Este 30 Este 0 1008.2 -0.5 71
2018-05-17 15:00:00 15.2 23 Este 34 Este 0 1008.6 0 73
2018-05-17 14:00:00 15.3 24 Este 35 Este 0 1008.7 0.5 73
2018-05-17 13:00:00 14.4 29 Este 37 Este 0 1008.7 0.5 74
2018-05-17 12:00:00 14.3 28 Este 39 Este 0 1008.6 0.6 74
2018-05-17 11:00:00 14.1 27 Este 37 Este 0 1008.2 0.2 77
2018-05-17 10:00:00 13.4 28 Este 37 Este 0 1008.2 0.4 79
2018-05-17 09:00:00 12.7 31 Este 40 Este 0 1008 0.1 79
2018-05-17 08:00:00 12.7 30 Este 38 Este 0 1008 -0.1 81
2018-05-17 07:00:00 12.5 27 Este 40 Este 0 1007.8 -0.5 80
2018-05-17 06:00:00 12.5 32 Este 41 Este 0 1007.9 -0.6 80
2018-05-17 05:00:00 12.7 31 Este 42 Este 0 1008.1 -0.9 79
2018-05-17 04:00:00 12.8 33 Este 42 Este 0 1008.3 -1 79
2018-05-17 03:00:00 12.8 33 Este 44 Este 0 1008.5 -1 78
2018-05-17 02:00:00 12.9 29 Este 44 Este 0 1009 -0.2 77
2018-05-17 01:00:00 12.8 31 Este 49 Este 0 1009.3 0.3 76
2018-05-17 00:00:00 12.9 36 Este 46 Este 0 1009.5 0.5 76
2018-05-16 23:00:00 13 39 Este 48 Este 0 1009.2 0.3 79
2018-05-16 22:00:00 12.9 37 Este 46 Este 0 1009 -0.3 78
2018-05-16 21:00:00 13.1 39 Nordeste 46 Nordeste 0 1009 -0.3 76
2018-05-16 20:00:00 13.6 35 Este 45 Este 0 1008.9 -0.6 77
2018-05-16 19:00:00 14.3 27 Este 39 Este 0 1009.3 -0.8 74
2018-05-16 18:00:00 15.2 29 Este 37 Este 0 1009.3 -1 74
2018-05-16 17:00:00 15.4 25 Este 35 Este 0 1009.5 -1.4 73
2018-05-16 16:00:00 15.5 26 Este 36 Este 0 1010.1 -1.3 71
2018-05-16 15:00:00 16.1 27 Este 35 Este 0 1010.3 -1.2 69
2018-05-16 14:00:00 15.3 27 Este 34 Este 0 1010.9 -0.7 74
2018-05-16 13:00:00 15.1 23 Este 30 Este 0 1011.4 -0.3 75
2018-05-16 12:00:00 14 19 Este 33 Este 0 1011.5 0 82
2018-05-16 11:00:00 13.8 19 Este 25 Este 0 1011.6 0.2 85
2018-05-16 10:00:00 13.1 16 Este 27 Este 0 1011.7 0.6 86
2018-05-16 09:00:00 12.7 18 Este 27 Sudeste 0 1011.5 0.3 86
2018-05-16 08:00:00 12.6 18 Este 24 Sudeste 0 1011.4 -0.3 86
2018-05-16 07:00:00 12.4 22 Sudeste 30 Este 0 1011.1 -0.9 83
2018-05-16 06:00:00 12.8 24 Este 28 Este 0 1011.2 -1.3 81
2018-05-16 05:00:00 12.6 19 Este 32 Sudeste 0 1011.7 -1.2 80
2018-05-16 04:00:00 12.7 22 Este 34 Este 0 1012 -1.4 80
2018-05-16 03:00:00 12.8 24 Este 38 Este 0 1012.5 -1.2 80
2018-05-16 02:00:00 13 30 Este 42 Este 0 1012.9 -0.7 78
2018-05-16 01:00:00 13 33 Este 44 Nordeste 0 1013.4 0.1 75
2018-05-16 00:00:00 13 32 Nordeste 41 Este 0 1013.7 0.9 81
2018-05-15 23:00:00 13 27 Este 32 Este 0 1013.6 0.6 79
2018-05-15 22:00:00 12.6 20 Nordeste 36 Nordeste 0 1013.3 0.2 81
2018-05-15 21:00:00 13.1 20 Nordeste 35 Nordeste 0 1012.8 -0.6 80
2018-05-15 20:00:00 13.3 19 Nordeste 30 Norte 0 1013 -0.6 83
2018-05-15 19:00:00 13.2 17 Nordeste 33 Nordeste 0 1013.1 -0.9 84
2018-05-15 18:00:00 13.7 15 Nordeste 24 Nordeste 0 1013.4 -0.8 82
2018-05-15 17:00:00 14.4 13 Este 15 Este 0 1013.6 -1 81
2018-05-15 16:00:00 14.7 11 Este 14 Este 0 1014 -0.6 77
2018-05-15 15:00:00 15.3 9 Este 13 Este 0 1014.2 -0.3 76
2018-05-15 14:00:00 15 7 Nordeste 13 Nordeste 0 1014.6 0.1 72
2018-05-15 13:00:00 15.4 10 Este 17 Este 0 1014.6 0.2 70
2018-05-15 12:00:00 15.3 10 Este 16 Este 0 1014.5 0.1 70
2018-05-15 11:00:00 13.8 5 Este 12 Este 0 1014.5 0.3 76
2018-05-15 10:00:00 12.7 4 Este 10 Este 0 1014.4 0.5 77
2018-05-15 09:00:00 12.6 3 Oeste 5 Oeste 0 1014.4 0.5 81
2018-05-15 08:00:00 11.9 3 Oeste 8 Sudeste 0 1014.2 0.1 80
2018-05-15 07:00:00 11.6 7 Sudeste 9 Sudeste 0 1013.9 -0.3 80
2018-05-15 06:00:00 11.6 6 Sur 8 Sur 0 1013.9 -0.6 82
2018-05-15 05:00:00 11.7 7 Sudeste 9 Sudeste 0 1014.1 -0.8 81
2018-05-15 04:00:00 11.8 6 Sudeste 14 Sudeste 0 1014.2 -1 81
2018-05-15 03:00:00 11.8 8 Sudeste 9 Sudeste 0 1014.5 -0.8 81
2018-05-15 02:00:00 12 8 Sudeste 9 Este 0 1014.9 -0.5 80
2018-05-15 01:00:00 12 8 Este 10 Este 0 1015.2 0.3 79
2018-05-15 00:00:00 12.3 6 Nordeste 12 Este 0 1015.3 0.7 79
2018-05-14 23:00:00 11.9 7 Este 10 Este 0 1015.4 0.8 78
2018-05-14 22:00:00 12.1 8 Nordeste 13 Nordeste 0 1014.9 0.6 77
2018-05-14 21:00:00 13.4 7 Nordeste 14 Este 0 1014.6 0.1 71
2018-05-14 20:00:00 14 13 Este 20 Este 0 1014.6 0 70
2018-05-14 19:00:00 15.2 10 Este 20 Este 0 1014.3 -0.2 68
2018-05-14 18:00:00 14.9 15 Este 19 Este 0 1014.5 0.1 68
2018-05-14 17:00:00 14.9 16 Este 22 Este 0 1014.6 0.3 72
2018-05-14 16:00:00 15.1 17 Este 23 Este 0 1014.5 0.4 71
2018-05-14 15:00:00 16.2 12 Este 20 Este 0 1014.4 0.9 72
2018-05-14 14:00:00 15.6 14 Este 25 Este 0 1014.3 1.1 75
2018-05-14 13:00:00 14 17 Este 27 Este 0 1014.1 1.4 82
2018-05-14 12:00:00 13.1 22 Este 32 Este 0 1013.5 1 89
2018-05-14 11:00:00 13.3 12 Norte 22 Norte 0 1013.2 1.1 90
2018-05-14 10:00:00 12.9 14 Norte 27 Noroeste 0 1012.7 1.4 90
2018-05-14 09:00:00 12.7 14 Noroeste 27 Noroeste 0 1012.5 1.3 91
2018-05-14 08:00:00 12.6 17 Noroeste 33 Noroeste 0 1012.1 1 91
2018-05-14 07:00:00 12.8 24 Noroeste 35 Noroeste 0.6 1011.3 0.3 91
2018-05-14 06:00:00 12.8 26 Noroeste 39 Noroeste 0 1011.2 0.1 91
2018-05-14 05:00:00 12.8 33 Oeste 42 Noroeste 0.2 1011.1 0.2 91
2018-05-14 04:00:00 12.7 38 Noroeste 52 Noroeste 0.2 1011 -0.1 91
2018-05-14 03:00:00 12.9 41 Oeste 53 Oeste 0 1011.1 0.1 91
2018-05-14 02:00:00 12.9 45 Oeste 53 Oeste 1 1010.9 -0.6 90
2018-05-14 01:00:00 12.1 41 Oeste 53 Oeste 0.4 1011.1 -0.2 90
2018-05-11 20:00:00 11.8 28 Oeste 32 Oeste 0 1006.5 1.1 86
2018-05-11 19:00:00 11.6 19 Noroeste 33 Oeste 0 1006.3 1.4 87
2018-05-11 18:00:00 11.6 30 Oeste 39 Noroeste 0 1005.9 1 88
2018-05-11 17:00:00 11.6 27 Noroeste 56 Noroeste 0.6 1005.4 0.7 88
2018-05-11 16:00:00 11.8 49 Noroeste 64 Oeste 0.4 1004.9 0.3 84
2018-05-11 15:00:00 14.6 37 Oeste 48 Oeste 0 1004.9 0.4 76
2018-05-11 14:00:00 15.8 33 Oeste 56 Oeste 0 1004.7 0.9 68
2018-05-11 13:00:00 14.6 35 Oeste 53 Oeste 0 1004.6 1.6 70
2018-05-11 12:00:00 13.3 39 Oeste 46 Oeste 0 1004.5 1 67
2018-05-11 11:00:00 12.9 33 Oeste 57 Sudoeste 0 1003.8 1 62
2018-05-11 10:00:00 12.5 48 Sudoeste 64 Oeste 0 1003 0.1 66
2018-05-11 09:00:00 11.9 38 Oeste 44 Oeste 0 1003.5 1.3 74
2018-05-11 08:00:00 11.6 41 Oeste 54 Oeste 0 1002.8 1.1 75
2018-05-11 07:00:00 12.2 39 Oeste 57 Oeste 0 1002.9 0.9 77
2018-05-11 06:00:00 12.4 50 Oeste 62 Oeste 0 1002.2 0.2 76
2018-05-11 05:00:00 12.8 39 Oeste 48 Oeste 0 1001.7 -0.9 72
2018-05-11 04:00:00 11.4 17 Oeste 28 Oeste 0 1002 -1.9 76
2018-05-11 03:00:00 11.6 6 Sudoeste 20 Sudeste 0 1002 -2.9 74
2018-05-11 02:00:00 11.1 17 Sudeste 24 Sudeste 0 1002.6 -2.8 77
2018-05-11 01:00:00 11.5 20 Sudeste 33 Sudeste 0 1003.9 -1.8 76
2018-05-11 00:00:00 12 25 Sudeste 42 Sudeste 0 1004.9 -0.9 76
2018-05-10 23:00:00 12.5 32 Sudeste 49 Sudeste 0 1005.4 -0.8 73
2018-05-10 22:00:00 12.5 39 Sudeste 51 Sudeste 0 1005.7 -1.5 69
2018-05-10 21:00:00 12.7 40 Sudeste 56 Sudeste 0 1005.8 -2 68
2018-05-10 20:00:00 13.4 46 Sudeste 57 Sudeste 0 1006.2 -2.7 67
2018-05-10 19:00:00 13.6 39 Este 52 Este 0 1007.2 -2.2 65
2018-05-10 18:00:00 14.2 35 Este 48 Este 0 1007.8 -2.4 61
2018-05-10 17:00:00 14.2 31 Este 44 Este 0 1008.9 -1.9 57
2018-05-10 16:00:00 14.5 28 Este 43 Este 0 1009.4 -2 55
2018-05-10 15:00:00 14.3 29 Este 40 Este 0 1010.2 -1.4 53
2018-05-10 14:00:00 14.8 27 Este 40 Este 0 1010.8 -1.1 53
2018-05-10 13:00:00 14.8 24 Este 40 Este 0 1011.4 0.1 57
2018-05-10 12:00:00 13.5 31 Este 40 Este 0 1011.6 0.4 60
2018-05-10 11:00:00 13.7 25 Nordeste 36 Este 0 1011.9 1.6 58
2018-05-10 10:00:00 13.2 24 Nordeste 38 Nordeste 0 1011.3 1.6 62
2018-05-10 09:00:00 12.5 20 Nordeste 33 Nordeste 0 1011.2 1.7 68
2018-05-10 08:00:00 11.9 21 Nordeste 38 Norte 0 1010.3 0.7 68
2018-05-10 07:00:00 11.6 21 Nordeste 35 Norte 0 1009.7 0.2 70
2018-05-10 06:00:00 11.7 18 Nordeste 34 Nordeste 0 1009.5 0.1 69
2018-05-10 05:00:00 11.9 15 Nordeste 27 Nordeste 0 1009.6 0.4 73
2018-05-10 04:00:00 11.8 13 Norte 27 Norte 0 1009.5 0.5 74
2018-05-10 03:00:00 12 17 Norte 28 Norte 0 1009.4 0.8 72
2018-05-10 02:00:00 12.1 17 Norte 32 Norte 0 1009.2 1.4 76
2018-05-10 01:00:00 12.1 24 Norte 37 Norte 0.2 1009 2.1 79
2018-05-10 00:00:00 12 13 Noroeste 46 Oeste 0.6 1008.6 2.2 88
2018-05-09 23:00:00 12.4 36 Oeste 41 Oeste 0 1007.8 1.6 83
2018-05-09 22:00:00 13 32 Oeste 38 Oeste 0 1006.9 1 73
2018-05-09 21:00:00 13.1 31 Oeste 37 Oeste 0 1006.4 0.7 70
2018-05-09 20:00:00 13.8 29 Oeste 44 Oeste 0 1006.2 0.8 70
2018-05-09 19:00:00 14.4 34 Oeste 43 Oeste 0 1005.9 0.4 67
2018-05-09 18:00:00 13.7 37 Oeste 42 Oeste 0 1005.7 0 71
2018-05-09 17:00:00 13.8 35 Oeste 39 Oeste 0 1005.4 -0.4 69
2018-05-09 16:00:00 15.4 30 Oeste 33 Oeste 0 1005.5 -0.2 64
2018-05-09 15:00:00 13.9 25 Oeste 31 Noroeste 0 1005.7 0 68
2018-05-09 14:00:00 14.3 12 Noroeste 24 Noroeste 0 1005.8 0.2 70
2018-05-09 13:00:00 14.6 6 Noroeste 12 Noroeste 0 1005.7 0.1 71
2018-05-09 12:00:00 15.4 5 Oeste 10 Norte 0 1005.7 0.3 73
2018-05-09 11:00:00 13.8 5 Norte 12 Nordeste 0 1005.6 0.4 77
2018-05-09 10:00:00 12.5 6 Norte 11 Nordeste 0 1005.6 0.5 78
2018-05-09 09:00:00 12.6 6 Norte 14 Nordeste 0 1005.4 0.6 79
2018-05-09 08:00:00 12.2 7 Nordeste 20 Nordeste 0 1005.2 -0.2 81
2018-05-09 07:00:00 11.9 13 Nordeste 22 Nordeste 0 1005.1 -0.4 82
2018-05-09 06:00:00 12 15 Nordeste 26 Nordeste 0 1004.8 -1.3 85
2018-05-09 05:00:00 12.1 15 Nordeste 27 Norte 0 1005.4 -1.1 87
2018-05-09 04:00:00 12.4 13 Norte 26 Norte 0 1005.5 -1.1 88
2018-05-09 03:00:00 12.6 11 Norte 30 Nordeste 0 1006.1 -0.7 88
2018-05-09 02:00:00 12.9 16 Norte 27 Nordeste 0 1006.5 -0.8 88
2018-05-09 01:00:00 12.7 13 Nordeste 26 Norte 0.2 1006.6 -0.3 90
2018-05-09 00:00:00 13.1 8 Nordeste 17 Nordeste 0 1006.8 -0.1 89
2018-05-08 23:00:00 12.9 4 Oeste 12 Oeste 0.2 1007.3 0.4 88
2018-05-08 22:00:00 13 11 Oeste 14 Oeste 0 1006.9 -0.5 88
2018-05-08 21:00:00 13.1 11 Oeste 13 Oeste 0 1006.9 -0.1 86
2018-05-08 20:00:00 13.4 9 Oeste 12 Oeste 0 1006.9 -0.5 83
2018-05-08 19:00:00 13.5 11 Oeste 14 Oeste 0 1007.4 -0.1 80
2018-05-08 18:00:00 15 8 Oeste 14 Noroeste 0 1007 -0.7 76
2018-05-08 17:00:00 15 7 Norte 12 Norte 0 1007.4 -0.5 76
2018-05-08 16:00:00 15.7 6 Nordeste 12 Nordeste 0 1007.5 -0.9 72
2018-05-08 15:00:00 15.9 8 Nordeste 14 Noroeste 0 1007.7 -0.5 71
2018-05-08 14:00:00 16.9 11 Oeste 22 Oeste 0 1007.9 0.2 72
2018-05-08 13:00:00 13.9 18 Oeste 27 Oeste 0 1008.4 1.2 77
2018-05-08 12:00:00 12.9 26 Oeste 34 Noroeste 0 1008.2 1.3 76
2018-05-08 11:00:00 12.1 19 Noroeste 30 Noroeste 0 1007.7 0.7 80
2018-05-08 10:00:00 12.7 11 Oeste 15 Oeste 0 1007.2 0.4 83
2018-05-08 09:00:00 11.9 14 Oeste 20 Noroeste 0 1006.9 0.4 84
2018-05-08 08:00:00 11.8 9 Oeste 27 Noroeste 0 1007 0.5 84
2018-05-08 07:00:00 12.1 6 Noroeste 20 Noroeste 0 1006.8 0.3 84
2018-05-08 06:00:00 12.2 12 Noroeste 19 Oeste 0 1006.5 -0.4 86
2018-05-08 05:00:00 12.5 5 Noroeste 18 Noroeste 0 1006.5 -0.7 87
2018-05-08 04:00:00 12.6 4 Norte 9 Oeste 0 1006.5 -1.1 87
2018-05-08 03:00:00 12.8 3 Noroeste 15 Norte 0 1006.9 -0.6 87
2018-05-08 02:00:00 12.9 8 Norte 18 Norte 0 1007.2 0.1 88
2018-05-08 01:00:00 13.2 8 Norte 15 Norte 0 1007.6 0.9 87
2018-05-08 00:00:00 13.5 3 Sudeste 14 Nordeste 0 1007.5 1.6 87
2018-05-07 23:00:00 13.5 8 Nordeste 21 Este 0 1007.1 1.5 87
2018-05-07 22:00:00 13.9 9 Este 22 Este 0 1006.7 0.9 86
2018-05-07 21:00:00 13.9 17 Este 22 Este 0 1005.9 0 86
2018-05-07 20:00:00 14.4 14 Este 22 Este 0 1005.6 -0.3 86
2018-05-07 19:00:00 14.4 17 Este 24 Este 0 1005.8 -0.4 86
2018-05-07 18:00:00 14.7 17 Este 26 Nordeste 0 1005.9 -0.6 84
2018-05-07 17:00:00 15 19 Nordeste 25 Este 0 1005.9 -0.8 83
2018-05-07 16:00:00 15.6 20 Este 25 Este 0 1006.2 -0.8 82
2018-05-07 15:00:00 15.8 23 Este 26 Este 0 1006.5 -0.8 80
2018-05-07 14:00:00 16.2 23 Este 30 Este 0 1006.7 -0.3 80
2018-05-07 13:00:00 16.2 19 Este 28 Este 0 1007 0.2 81
2018-05-07 12:00:00 15.3 19 Este 27 Este 0 1007.3 0.7 84
2018-05-07 11:00:00 14.3 19 Este 24 Este 0 1007 0.7 86
2018-05-07 10:00:00 13.7 17 Este 23 Este 0 1006.8 0.7 87
2018-05-07 09:00:00 13.4 19 Sudeste 28 Este 0 1006.6 0.9 88
2018-05-07 08:00:00 13.2 21 Sudeste 28 Sudeste 0 1006.3 0.4 89
2018-05-07 07:00:00 13.2 18 Este 23 Este 0 1006.1 0.3 89
2018-05-07 06:00:00 13.3 20 Sudeste 26 Este 0 1005.7 -0.5 89
2018-05-07 05:00:00 13.2 18 Este 29 Sudeste 0 1005.9 -0.7 89
2018-05-07 04:00:00 13.3 23 Sudeste 30 Sudeste 0 1005.8 -1 89
2018-05-07 03:00:00 13.4 22 Este 27 Este 0 1006.2 -0.5 89
2018-05-07 02:00:00 13.5 21 Este 26 Este 0 1006.6 0 89
2018-05-07 01:00:00 13.8 22 Este 28 Este 0 1006.8 0.8 89
2018-05-07 00:00:00 13.7 19 Este 30 Este 0 1006.7 0.7 89
2018-05-06 23:00:00 13.9 20 Este 32 Este 0 1006.6 0.9 89
2018-05-06 22:00:00 14.3 25 Sudeste 32 Este 0 1006 0.3 87
2018-05-06 21:00:00 14.7 19 Este 26 Este 0 1006 0.5 83
2018-05-06 20:00:00 15.5 19 Este 27 Este 0 1005.7 -0.1 79
2018-05-06 19:00:00 15.6 20 Este 32 Este 0 1005.7 -0.4 80
2018-05-06 18:00:00 16.1 25 Este 34 Este 0 1005.5 -0.7 77
2018-05-06 17:00:00 16.3 24 Este 37 Este 0 1005.8 -0.7 76
2018-05-06 16:00:00 16.2 26 Este 36 Este 0 1006.1 -0.7 76
2018-05-06 15:00:00 15.4 31 Este 38 Este 0 1006.2 -0.8 76
2018-05-06 14:00:00 15.5 28 Este 37 Sudeste 0 1006.5 -0.7 76
2018-05-06 13:00:00 15.8 31 Este 39 Este 0 1006.8 -0.5 74
2018-05-06 12:00:00 14.7 33 Este 42 Este 0 1007 -0.3 77
2018-05-06 11:00:00 14.5 30 Sudeste 40 Sudeste 0 1007.2 0.2 78
2018-05-06 10:00:00 13.3 32 Sudeste 40 Este 0 1007.3 0.7 83
2018-05-06 09:00:00 12.9 30 Sudeste 39 Este 0 1007.3 0.6 85
2018-05-06 08:00:00 12.7 31 Sudeste 38 Sudeste 0 1007 0.2 87
2018-05-06 07:00:00 12.9 33 Este 41 Este 0 1006.6 -0.5 88
2018-05-06 06:00:00 13 30 Este 44 Este 0 1006.7 -0.6 88
2018-05-06 05:00:00 12.9 33 Este 41 Sudeste 0 1006.8 -1.1 88
2018-05-06 04:00:00 12.9 33 Este 41 Este 0 1007.1 -1.1 88
2018-05-06 03:00:00 12.9 28 Este 42 Este 0 1007.3 -1.3 88
2018-05-06 02:00:00 12.9 30 Este 45 Sudeste 0 1007.9 -0.8 88
2018-05-06 01:00:00 13.1 34 Este 47 Este 0 1008.2 -0.4 87
2018-05-06 00:00:00 13.1 36 Este 50 Este 0 1008.6 0.1 87
2018-05-05 23:00:00 13.2 33 Este 49 Este 0 1008.7 0.2 87
2018-05-05 22:00:00 13.3 35 Este 48 Este 0 1008.6 -0.1 86
2018-05-05 21:00:00 13.3 33 Este 47 Este 0 1008.5 -0.3 85
2018-05-05 20:00:00 13.5 31 Este 42 Este 0 1008.5 -0.3 83
2018-05-05 19:00:00 13.8 31 Este 44 Este 0 1008.7 -0.3 81
2018-05-05 18:00:00 14 31 Este 45 Este 0 1008.8 -0.4 79
2018-05-05 17:00:00 14.5 32 Este 46 Este 0 1008.8 -0.6 74
2018-05-05 16:00:00 14.6 33 Este 44 Este 0 1009 -0.5 71
2018-05-05 15:00:00 15.1 32 Este 48 Este 0 1009.2 -0.3 70
2018-05-05 14:00:00 14.7 36 Este 50 Este 0 1009.4 -0.5 70
2018-05-05 13:00:00 14.2 36 Este 54 Este 0 1009.5 -0.5 72
2018-05-05 12:00:00 14 39 Este 52 Este 0 1009.5 -0.5 73
2018-05-05 11:00:00 14.2 33 Este 49 Este 0 1009.9 0.1 69
2018-05-05 10:00:00 13.5 34 Este 46 Este 0 1010 0.6 70
2018-05-05 09:00:00 13 34 Este 48 Este 0 1010 0.4 71
2018-05-05 08:00:00 12.1 35 Este 49 Este 0 1009.8 0.4 76
2018-05-05 07:00:00 11.9 36 Este 48 Este 0 1009.4 -0.1 77
2018-05-05 06:00:00 11.8 34 Este 46 Este 0 1009.6 -0.1 77
2018-05-05 05:00:00 11.8 32 Este 47 Este 0 1009.4 -0.7 79
2018-05-05 04:00:00 12 37 Este 53 Este 0 1009.5 -0.8 79
2018-05-05 03:00:00 12.2 43 Este 59 Este 0 1009.7 -0.8 80
2018-05-05 02:00:00 12.3 39 Este 58 Este 0 1010.1 -0.5 80
2018-05-05 01:00:00 12.2 42 Este 59 Este 0 1010.3 0.2 80
2018-05-05 00:00:00 12.3 41 Este 58 Este 0 1010.5 0.6 81
2018-05-04 23:00:00 12.3 40 Este 57 Este 0 1010.6 0.6 81
2018-05-04 22:00:00 12.3 45 Este 62 Este 0 1010.1 -0.3 80
2018-05-04 21:00:00 12.5 44 Este 59 Este 0 1009.9 -0.4 77
2018-05-04 20:00:00 13 43 Este 55 Este 0 1010 -0.4 73
2018-05-04 19:00:00 13.2 36 Este 53 Este 0 1010.4 -0.4 69
2018-05-04 18:00:00 13.4 38 Este 50 Este 0 1010.3 -0.9 67
2018-05-04 17:00:00 13.9 33 Este 49 Este 0 1010.4 -1.1 65
2018-05-04 16:00:00 13.8 34 Este 47 Este 0 1010.8 -1.1 63
2018-05-04 15:00:00 14.3 31 Este 45 Este 0 1011.2 -0.9 62
2018-05-04 14:00:00 14.5 27 Este 43 Este 0 1011.5 -0.5 62
2018-05-04 13:00:00 14.2 30 Este 41 Este 0 1011.9 0 63
2018-05-04 12:00:00 14 30 Este 39 Este 0 1012.1 0.6 67
2018-05-04 11:00:00 13.1 33 Este 46 Este 0 1012 0.7 68
2018-05-04 10:00:00 12.9 39 Este 50 Este 0 1011.9 0.8 69
2018-05-04 09:00:00 12.3 43 Nordeste 51 Este 0 1011.5 0.4 71
2018-05-04 08:00:00 11.6 39 Nordeste 45 Nordeste 0 1011.3 -0.1 74
2018-05-04 07:00:00 11.4 33 Este 44 Este 0 1011.1 -0.7 76
2018-05-04 06:00:00 11.2 33 Este 41 Este 0 1011.1 -1.1 76
2018-05-04 05:00:00 11.2 33 Este 39 Nordeste 0 1011.4 -1.3 75
2018-05-04 04:00:00 11.2 30 Este 39 Nordeste 0 1011.8 -1.3 74
2018-05-04 03:00:00 11.2 32 Este 37 Nordeste 0 1012.2 -0.9 75
2018-05-04 02:00:00 11.3 30 Este 42 Este 0 1012.7 -0.8 74
2018-05-04 01:00:00 11.6 32 Nordeste 40 Este 0 1013.1 -0.1 74
2018-05-04 00:00:00 11.5 31 Este 38 Este 0 1013.1 0.2 71
2018-05-03 23:00:00 11.5 30 Este 36 Este 0 1013.5 1 71
2018-05-03 22:00:00 11.4 29 Nordeste 34 Este 0 1013.2 0.8 67
2018-05-03 21:00:00 11.6 23 Nordeste 32 Este 0 1012.9 0.7 66
2018-05-03 20:00:00 12 27 Nordeste 31 Este 0 1012.5 -0.2 66
2018-05-03 19:00:00 12.9 19 Nordeste 31 Nordeste 0 1012.4 -0.5 66
2018-05-03 18:00:00 13.3 22 Este 31 Nordeste 0 1012.2 -0.7 66
2018-05-03 17:00:00 13.3 16 Nordeste 30 Este 0 1012.7 -0.2 60
2018-05-03 16:00:00 13.6 16 Nordeste 30 Este 0 1012.9 -0.1 62
2018-05-03 15:00:00 13.5 17 Nordeste 33 Nordeste 0 1012.9 -0.1 64
2018-05-03 14:00:00 12.5 19 Nordeste 31 Nordeste 0 1012.9 -0.1 69
2018-05-03 13:00:00 13.1 16 Nordeste 31 Nordeste 0 1013 0.4 67
2018-05-03 12:00:00 12.7 19 Nordeste 33 Nordeste 0 1013 1 65
2018-05-03 11:00:00 12.4 22 Nordeste 32 Nordeste 0 1013 1.4 67
2018-05-03 10:00:00 12.2 18 Nordeste 30 Nordeste 0 1012.6 1.4 69
2018-05-03 09:00:00 11.5 17 Nordeste 31 Nordeste 0 1012 1.2 70
2018-05-03 08:00:00 11 19 Nordeste 31 Norte 0 1011.6 0.7 71
2018-05-03 07:00:00 10.9 13 Norte 27 Nordeste 0 1011.2 0.3 73
2018-05-03 06:00:00 10.9 17 Nordeste 27 Nordeste 0 1010.8 -0.2 73
2018-05-03 05:00:00 10.9 12 Nordeste 23 Norte 0 1010.9 -0.3 70
2018-05-03 04:00:00 10.9 12 Norte 30 Nordeste 0 1010.9 0.2 71
2018-05-03 03:00:00 11.1 13 Norte 30 Nordeste 0 1011 0.5 70
2018-05-03 02:00:00 11.2 19 Nordeste 31 Nordeste 0 1011.2 1.1 68
2018-05-03 01:00:00 11.3 14 Nordeste 26 Nordeste 0 1010.7 1.3 70
2018-05-03 00:00:00 11.5 13 Norte 26 Nordeste 0 1010.5 2 76
2018-05-02 23:00:00 11.1 15 Norte 24 Norte 0 1010.1 2.5 80
2018-05-02 22:00:00 11.2 7 Nordeste 28 Norte 0.2 1009.4 2.7 88
2018-05-02 21:00:00 11.1 14 Norte 30 Nordeste 0 1008.5 3.1 90
2018-05-02 20:00:00 11.2 22 Norte 37 Norte 0.4 1007.6 3 90
2018-05-02 19:00:00 11.7 26 Norte 48 Noroeste 3.4 1006.7 2.4 89
2018-05-02 18:00:00 14.1 35 Oeste 47 Oeste 0 1005.4 1.5 81
2018-05-02 17:00:00 14.5 39 Oeste 53 Oeste 0 1004.6 1.4 79
2018-05-02 16:00:00 15.1 45 Oeste 52 Oeste 0 1004.3 1.2 76
2018-05-02 15:00:00 14.5 46 Oeste 60 Oeste 0 1003.9 1.6 75
2018-05-02 14:00:00 15.1 51 Oeste 62 Oeste 0 1003.2 1.4 69
2018-05-02 13:00:00 16 48 Oeste 62 Oeste 0 1003.1 2.2 65
2018-05-02 12:00:00 14.7 52 Oeste 67 Oeste 0 1002.3 1.9 67
2018-05-02 11:00:00 13.8 50 Oeste 71 Oeste 0 1001.8 2.3 70
2018-05-02 10:00:00 12.8 50 Oeste 65 Sudoeste 0 1000.9 1.6 70
2018-05-02 09:00:00 12.2 50 Oeste 68 Oeste 0 1000.4 1.4 72
2018-05-02 08:00:00 11.8 54 Oeste 76 Oeste 0 999.5 0.3 72
2018-05-02 07:00:00 11.5 59 Oeste 74 Oeste 0 999.3 -0.1 72
2018-05-02 06:00:00 11.6 59 Oeste 74 Oeste 0 999 -1.2 71
2018-05-02 05:00:00 11.1 59 Oeste 73 Oeste 0 999.2 -1.9 73
2018-05-02 04:00:00 10.7 51 Oeste 72 Oeste 0 999.4 -2.4 75
2018-05-02 03:00:00 10.5 47 Oeste 61 Oeste 0 1000.2 -2.3 74
2018-05-02 02:00:00 10.3 37 Oeste 46 Oeste 0.2 1001.1 -1.7 73
2018-05-02 01:00:00 10.3 30 Sudoeste 44 Oeste 0 1001.8 -1.2 70
2018-05-02 00:00:00 11.1 23 Sudoeste 34 Sudoeste 0 1002.5 -0.3 59
2018-05-01 23:00:00 11.8 25 Sudoeste 37 Sudoeste 0 1002.8 0.2 50
2018-05-01 22:00:00 12.1 21 Sudoeste 38 Sudoeste 0 1003 0.2 52
2018-05-01 21:00:00 12.3 32 Oeste 45 Oeste 0 1002.8 -0.5 62
2018-05-01 20:00:00 12.6 38 Oeste 51 Oeste 0 1002.6 -0.6 61
2018-05-01 19:00:00 13.4 44 Oeste 54 Oeste 0 1002.8 -1.1 59
2018-05-01 18:00:00 13.1 48 Oeste 59 Oeste 0 1003.3 -1.5 58
2018-05-01 17:00:00 13.6 56 Oeste 66 Oeste 0 1003.2 -2.2 56
2018-05-01 16:00:00 14.2 54 Oeste 60 Oeste 0 1003.9 -2.1 56
2018-05-01 15:00:00 13.4 51 Oeste 59 Oeste 0 1004.8 -1.9 57
2018-05-01 14:00:00 13.9 44 Oeste 50 Oeste 0 1005.4 -1.6 56
2018-05-01 13:00:00 13.4 29 Noroeste 36 Noroeste 0 1006 -1.3 57
2018-05-01 12:00:00 15.3 18 Oeste 24 Oeste 0 1006.7 -0.6 53
2018-05-01 11:00:00 13.5 21 Oeste 25 Oeste 0 1007 -0.1 59
2018-05-01 10:00:00 12.1 17 Sudoeste 23 Oeste 0 1007.3 0.5 63
2018-05-01 09:00:00 9.9 10 Sudoeste 18 Sudoeste 0 1007.3 0.3 67
2018-05-01 08:00:00 8.9 14 Sudoeste 20 Oeste 0 1007.1 -0.1 73
2018-05-01 07:00:00 8.9 12 Sudoeste 15 Sudoeste 0 1006.8 -0.7 71
2018-05-01 06:00:00 8.9 12 Sudoeste 15 Sudoeste 0 1007 -1.1 72
2018-05-01 05:00:00 9 10 Sudoeste 15 Sudoeste 0 1007.2 -1.1 70
2018-05-01 04:00:00 8.8 10 Sudoeste 15 Oeste 0 1007.5 -1.1 73
2018-05-01 03:00:00 9.3 8 Sudoeste 13 Sudoeste 0 1008.1 -0.2 70
2018-05-01 02:00:00 9.4 4 Sudeste 13 Nordeste 0 1008.3 -0.1 66
2018-05-01 01:00:00 10 6 Nordeste 24 Nordeste 0 1008.6 0.7 64
2018-05-01 00:00:00 10.6 13 Norte 22 Nordeste 0 1008.3 0.7 67
2018-04-30 23:00:00 10.5 10 Norte 19 Norte 0 1008.4 1 63
2018-04-30 22:00:00 10.6 14 Norte 22 Norte 0 1007.9 0.6 59
2018-04-30 21:00:00 11.4 14 Norte 27 Norte 0 1007.6 0.6 61
2018-04-30 20:00:00 13.3 11 Norte 22 Noroeste 0 1007.4 0.5 55
2018-04-30 19:00:00 13.1 14 Norte 24 Norte 0 1007.3 0.6 56
2018-04-30 18:00:00 13.4 13 Norte 22 Norte 0 1007 0.3 59
2018-04-30 17:00:00 13.2 11 Norte 23 Norte 0 1006.9 0.5 58
2018-04-30 16:00:00 13 9 Norte 22 Norte 0 1006.7 0.5 67
2018-04-30 15:00:00 9.6 22 Norte 41 Norte 0 1006.7 1.1 74
2018-04-30 14:00:00 13.5 8 Noroeste 47 Nordeste 0 1006.4 1.3 60
2018-04-30 13:00:00 11.4 17 Norte 30 Nordeste 0 1006.2 1.7 70
2018-04-30 12:00:00 11.8 17 Norte 26 Norte 0 1005.6 1.7 66
2018-04-30 11:00:00 10.3 14 Noroeste 25 Noroeste 0 1005.1 1.8 73
2018-04-30 10:00:00 10.3 18 Oeste 24 Oeste 0 1004.5 1.7 79
2018-04-30 09:00:00 9.1 21 Oeste 30 Oeste 0 1003.9 1.7 85
2018-04-30 08:00:00 8 22 Oeste 34 Oeste 0.4 1003.3 1.2 86
2018-04-30 07:00:00 8.1 27 Oeste 37 Oeste 0 1002.8 1.3 83
2018-04-30 06:00:00 7.9 24 Oeste 37 Oeste 0.4 1002.2 0.8 84
2018-04-30 05:00:00 8.2 30 Oeste 48 Oeste 0 1002.1 0.2 82
2018-04-30 04:00:00 8.2 40 Oeste 50 Oeste 0 1001.5 -0.2 82
2018-04-30 03:00:00 8 40 Oeste 49 Oeste 0 1001.4 0.5 85
2018-04-30 02:00:00 7.8 31 Oeste 38 Sudoeste 0.4 1001.9 1.1 84
2018-04-30 01:00:00 7.9 20 Sudoeste 36 Sudoeste 1 1001.7 1.7 83
2018-04-30 00:00:00 8.2 28 Oeste 36 Oeste 0.2 1000.9 1.5 83
2018-04-29 23:00:00 8.8 21 Oeste 36 Sudoeste 0 1000.8 2.4 83
2018-04-29 22:00:00 8.9 24 Oeste 36 Sudoeste 0.4 1000 1.7 84
2018-04-29 21:00:00 9 28 Oeste 48 Oeste 0 999.4 1.3 85
2018-04-29 20:00:00 9 39 Oeste 49 Sudoeste 0 998.4 0.6 84
2018-04-29 19:00:00 9.7 31 Oeste 39 Oeste 0.4 998.3 0.9 85
2018-04-29 18:00:00 9.7 18 Oeste 28 Oeste 1.2 998.1 0.9 84
2018-04-29 17:00:00 9.9 18 Sudoeste 38 Oeste 1 997.8 0.6 84
2018-04-29 16:00:00 10.1 12 Noroeste 22 Oeste 0 997.4 0.3 82
2018-04-29 15:00:00 10.4 14 Nordeste 20 Nordeste 3 997.2 0.2 84
2018-04-29 14:00:00 10.5 9 Sudeste 19 Este 0.8 997.2 0.4 77
2018-04-29 13:00:00 11.1 11 Este 21 Este 0 997.1 0.6 74
2018-04-29 12:00:00 11.4 8 Este 14 Este 0 997 1 76
2018-04-29 11:00:00 10.5 5 Sudoeste 14 Sudoeste 0 996.8 1.2 78
2018-04-29 10:00:00 9.8 5 Sudoeste 23 Sudoeste 0.2 996.5 1.2 76
2018-04-29 09:00:00 9.8 21 Sudoeste 27 Oeste 0 996 0.5 72
2018-04-29 08:00:00 9.2 23 Oeste 31 Oeste 0 995.6 -0.1 73
2018-04-29 07:00:00 9.4 22 Oeste 27 Oeste 0 995.3 -0.7 73
2018-04-29 06:00:00 9.6 18 Sudoeste 22 Oeste 0 995.5 -1.1 75
2018-04-29 05:00:00 9.8 5 Sudoeste 10 Oeste 0 995.7 -1.6 74
2018-04-29 04:00:00 10 7 Oeste 10 Oeste 0 996 -1.9 74
2018-04-29 03:00:00 10.3 4 Sudoeste 11 Sur 0 996.6 -1.5 75
2018-04-29 02:00:00 10.2 10 Sudeste 13 Sudeste 0 997.3 -1.1 75
2018-04-29 01:00:00 10.5 8 Sur 18 Sudeste 0 997.9 -0.6 74
2018-04-29 00:00:00 10.7 14 Sudeste 24 Sudeste 0 998.1 -0.3 72
2018-04-28 23:00:00 11 15 Sudeste 28 Sudeste 0 998.4 0 70
2018-04-28 22:00:00 11.1 21 Este 31 Sudeste 0 998.5 -0.3 69
2018-04-28 21:00:00 11.3 22 Este 31 Este 0 998.4 -0.7 69
2018-04-28 20:00:00 11.9 21 Este 30 Este 0 998.4 -1.1 64
2018-04-28 19:00:00 13 18 Este 30 Este 0 998.8 -1.2 64
2018-04-28 18:00:00 13.3 16 Este 28 Este 0 999.1 -1.1 63
2018-04-28 17:00:00 12.7 19 Este 26 Este 0 999.5 -1 64
2018-04-28 16:00:00 14.6 13 Este 22 Este 0 1000 -1 57
2018-04-28 15:00:00 14.2 16 Este 28 Este 0 1000.2 -1.3 60
2018-04-28 14:00:00 14.2 21 Este 28 Este 0 1000.5 -1.1 63
2018-04-28 13:00:00 13.2 14 Nordeste 23 Nordeste 0 1001 -0.7 59
2018-04-28 12:00:00 13.3 12 Este 16 Este 0 1001.5 -0.5 62
2018-04-28 11:00:00 12.8 6 Nordeste 9 Nordeste 0 1001.6 -0.3 64
2018-04-28 10:00:00 12.2 3 Norte 10 Este 0 1001.7 -0.2 66
2018-04-28 09:00:00 10.1 9 Este 16 Este 0 1002 -0.2 75
2018-04-28 08:00:00 9.4 5 Oeste 10 Oeste 0 1001.9 -0.9 73
2018-04-28 07:00:00 9.2 6 Sudoeste 15 Sudoeste 0 1001.9 -1.3 73
2018-04-28 06:00:00 9.2 12 Oeste 15 Sudoeste 0 1002.2 -1.6 74
2018-04-28 05:00:00 9.5 9 Oeste 17 Oeste 0 1002.8 -1.6 76
2018-04-28 04:00:00 9.9 8 Sudoeste 13 Sur 0 1003.2 -1.7 70
2018-04-28 03:00:00 10 6 Sudoeste 11 Sur 0 1003.8 -1.4 69
2018-04-28 02:00:00 10 9 Sur 13 Oeste 0 1004.4 -1 69
2018-04-28 01:00:00 11 12 Oeste 21 Oeste 0 1004.9 -0.4 68
2018-04-28 00:00:00 11 17 Oeste 27 Noroeste 0 1005.2 -0.2 66
2018-04-27 23:00:00 11.1 26 Oeste 32 Noroeste 0 1005.4 -0.3 66
2018-04-27 22:00:00 11.2 30 Oeste 37 Oeste 0 1005.3 -0.6 65
2018-04-27 21:00:00 11.6 30 Oeste 35 Oeste 0 1005.4 -0.1 63
2018-04-27 20:00:00 12.3 30 Oeste 41 Oeste 0 1005.7 0.1 62
2018-04-27 19:00:00 12.4 28 Oeste 45 Oeste 0 1005.9 0 66
2018-04-27 18:00:00 13.9 41 Oeste 50 Oeste 0 1005.5 -0.1 59
2018-04-27 17:00:00 14.6 38 Oeste 45 Oeste 0 1005.6 -0.5 57
2018-04-27 16:00:00 14.1 41 Oeste 54 Oeste 0 1005.9 0.2 54
2018-04-27 15:00:00 14 45 Oeste 56 Oeste 0 1005.6 -0.3 56
2018-04-27 14:00:00 14.8 39 Oeste 59 Oeste 0 1006.1 0.5 53
2018-04-27 13:00:00 13.2 52 Oeste 59 Oeste 0 1005.7 0.8 60
2018-04-27 12:00:00 12 54 Oeste 67 Oeste 0 1005.9 1.7 65
2018-04-27 11:00:00 12.9 46 Oeste 66 Oeste 0 1005.6 1.4 63
2018-04-27 10:00:00 12.6 50 Oeste 69 Oeste 0 1004.9 1.5 61
2018-04-27 09:00:00 11.5 54 Oeste 63 Oeste 0 1004.2 1.1 70
2018-04-27 08:00:00 11.2 39 Oeste 55 Oeste 0 1004.2 1 75
2018-04-27 07:00:00 11.4 46 Oeste 65 Oeste 0 1003.4 0.7 76
2018-04-27 06:00:00 11.4 54 Oeste 73 Oeste 0.2 1003.1 0.1 79
2018-04-27 05:00:00 11.1 47 Oeste 67 Oeste 0.2 1003.2 -0.2 85
2018-04-27 04:00:00 11.9 51 Oeste 72 Oeste 0 1002.7 -1.1 76
2018-04-27 03:00:00 12.3 49 Oeste 60 Sudoeste 0 1003 -1.5 65
2018-04-27 02:00:00 11.3 46 Oeste 52 Oeste 0 1003.4 -1.6 76
2018-04-27 01:00:00 11.8 47 Oeste 54 Sudoeste 0 1003.8 -1.4 74
2018-04-27 00:00:00 11.8 30 Oeste 39 Oeste 0 1004.5 -1.1 76
2018-04-26 23:00:00 11.6 16 Sudeste 32 Sudeste 0 1005 -1.6 77
2018-04-26 22:00:00 12 24 Sudeste 32 Sudeste 0 1005.2 -2 77
2018-04-26 21:00:00 12.6 27 Sudeste 33 Sudeste 0 1005.6 -2.3 74
2018-04-26 20:00:00 13.4 24 Este 31 Este 0 1006.6 -1.9 70
2018-04-26 19:00:00 14 21 Este 31 Este 0 1007.2 -2.1 68
2018-04-26 18:00:00 14.3 21 Este 33 Este 0 1007.9 -2.2 68
2018-04-26 17:00:00 14.8 23 Este 37 Este 0 1008.5 -2.1 67
2018-04-26 16:00:00 14.6 24 Este 36 Este 0 1009.3 -2.5 66
2018-04-26 15:00:00 15 25 Este 40 Este 0 1010.1 -2.2 65
2018-04-26 14:00:00 14.8 26 Este 37 Este 0 1010.6 -2.2 67
2018-04-26 13:00:00 14.4 28 Este 36 Este 0 1011.8 -1.3 67
2018-04-26 12:00:00 14.3 27 Este 34 Este 0 1012.3 -0.9 67
2018-04-26 11:00:00 14 26 Este 33 Nordeste 0 1012.8 -0.1 66
2018-04-26 10:00:00 13.2 24 Nordeste 32 Este 0 1013.1 -0.1 69
2018-04-26 09:00:00 12.5 28 Este 35 Este 0 1013.2 -0.2 74
2018-04-26 08:00:00 11.6 27 Este 34 Este 0 1012.9 -0.9 78
2018-04-26 07:00:00 11.3 26 Este 34 Nordeste 0 1013.2 -0.7 77
2018-04-26 06:00:00 11.3 26 Nordeste 34 Nordeste 0 1013.4 -1.3 76
2018-04-26 05:00:00 11.5 23 Nordeste 32 Nordeste 0 1013.8 -1.3 76
2018-04-26 04:00:00 11.4 26 Este 33 Nordeste 0 1013.9 -1.3 76
2018-04-26 03:00:00 11.7 23 Nordeste 33 Nordeste 0 1014.7 -0.9 76
2018-04-26 02:00:00 12.1 20 Nordeste 33 Nordeste 0 1015.1 -0.7 75
2018-04-26 01:00:00 11.9 19 Nordeste 30 Nordeste 0 1015.2 -0.3 75
2018-04-26 00:00:00 12.1 15 Nordeste 26 Nordeste 0 1015.6 0.5 77
2018-04-25 23:00:00 12.1 13 Nordeste 22 Nordeste 0 1015.8 1.1 76
2018-04-25 22:00:00 12.1 14 Nordeste 22 Nordeste 0 1015.5 0.7 74
2018-04-25 21:00:00 12.8 10 Norte 19 Nordeste 0 1015.1 0.4 71
2018-04-25 20:00:00 14.2 8 Norte 16 Norte 0 1014.7 -0.1 68
2018-04-25 19:00:00 15 8 Norte 15 Norte 0 1014.8 -0.4 62
2018-04-25 18:00:00 15.6 6 Norte 17 Norte 0 1014.7 -0.4 62
2018-04-25 17:00:00 15.6 10 Norte 18 Norte 0 1014.8 -0.4 62
2018-04-25 16:00:00 15.4 11 Norte 19 Norte 0 1015.2 0.2 63
2018-04-25 15:00:00 14.5 12 Norte 20 Norte 0 1015.1 0.4 69
2018-04-25 14:00:00 14.7 10 Norte 23 Norte 0 1015.2 1.2 70
2018-04-25 13:00:00 13.2 12 Norte 21 Norte 0 1015 2 73
2018-04-25 12:00:00 12 13 Norte 29 Norte 0 1014.7 2.4 83
2018-04-25 11:00:00 11.8 13 Norte 39 Norte 0.2 1014 2 91
2018-04-25 10:00:00 11.8 20 Norte 34 Norte 0.4 1013 1.8 90
2018-04-25 09:00:00 12.1 14 Oeste 17 Oeste 0 1012.3 1.5 88
2018-04-25 08:00:00 12 10 Oeste 17 Oeste 0 1012 1.4 87
2018-04-25 07:00:00 11.8 8 Sudoeste 17 Oeste 0 1011.2 0.7 87
2018-04-25 06:00:00 11.7 13 Oeste 17 Oeste 0 1010.8 0.1 88
2018-04-25 05:00:00 11.6 12 Oeste 18 Noroeste 0 1010.6 -0.1 88
2018-04-25 04:00:00 11.7 14 Noroeste 18 Noroeste 0 1010.5 -0.3 89
2018-04-25 03:00:00 12 7 Noroeste 14 Noroeste 0 1010.7 -0.3 89
2018-04-25 02:00:00 11.7 3 Oeste 6 Noroeste 0 1010.7 -0.1 89
2018-04-25 01:00:00 12.1 6 Norte 8 Noroeste 0 1010.8 0.6 90
2018-04-25 00:00:00 12.6 4 Norte 9 Este 0 1011 1.4 89
2018-04-24 23:00:00 12.5 8 Sudeste 12 Este 0 1010.8 1.3 89
2018-04-24 22:00:00 12.8 9 Nordeste 12 Nordeste 0 1010.2 0.8 89
2018-04-24 21:00:00 12.9 10 Este 15 Este 0 1009.6 0.4 88
2018-04-24 20:00:00 12.9 9 Nordeste 18 Nordeste 0 1009.5 0 88
2018-04-24 19:00:00 13.1 10 Nordeste 20 Nordeste 0 1009.4 -0.4 88
2018-04-24 18:00:00 13.6 17 Este 22 Nordeste 0 1009.2 -0.3 87
2018-04-24 17:00:00 13.1 12 Nordeste 30 Nordeste 0 1009.5 0.3 87
2018-04-24 16:00:00 13.1 15 Nordeste 27 Nordeste 0 1009.8 0.4 88
2018-04-24 15:00:00 13.4 22 Nordeste 28 Este 0 1009.5 0.3 86
2018-04-24 14:00:00 13.9 22 Este 30 Este 0 1009.2 -0.2 86
2018-04-24 13:00:00 13.8 20 Este 30 Este 0 1009.4 0.3 86
2018-04-24 12:00:00 13.8 19 Este 33 Este 0 1009.2 0.3 87
2018-04-24 11:00:00 13.2 23 Este 32 Este 0 1009.4 0.8 88
2018-04-24 10:00:00 13 25 Este 37 Este 0 1009.1 1 89
2018-04-24 09:00:00 12.8 27 Este 40 Este 0 1008.9 0.6 89
2018-04-24 08:00:00 12.8 26 Este 36 Este 0 1008.6 0.1 90
2018-04-24 07:00:00 12.9 25 Este 40 Este 0 1008.1 -0.5 90
2018-04-24 06:00:00 12.9 29 Este 40 Este 0 1008.3 -0.9 90
2018-04-24 05:00:00 12.9 30 Este 43 Este 0 1008.5 -1.2 89
2018-04-24 04:00:00 12.9 34 Este 44 Este 0 1008.6 -1.2 88
2018-04-24 03:00:00 12.9 33 Este 44 Este 0 1009.2 -0.8 88
2018-04-24 02:00:00 12.9 31 Este 40 Este 0 1009.7 -0.7 88
2018-04-24 01:00:00 12.9 35 Este 46 Este 0 1009.8 -0.3 88
2018-04-24 00:00:00 12.9 33 Este 43 Este 0 1010 0.8 88
2018-04-23 23:00:00 13 29 Este 43 Este 0 1010.4 1.3 87
2018-04-23 22:00:00 12.8 33 Este 45 Este 0 1010.1 0.7 86
2018-04-23 21:00:00 12.8 34 Este 48 Este 0 1009.2 -0.7 85
2018-04-23 20:00:00 12.9 32 Este 47 Este 0 1009.1 -0.6 83
2018-04-23 19:00:00 13.4 31 Este 42 Este 0 1009.4 -0.6 81
2018-04-23 18:00:00 13.2 31 Este 48 Este 0 1009.9 -0.4 81
2018-04-23 17:00:00 13.3 35 Este 46 Este 0 1009.7 -0.8 82
2018-04-23 16:00:00 13.4 33 Este 46 Este 0 1010 -1 82
2018-04-23 15:00:00 13.3 30 Este 42 Este 0 1010.3 -0.6 82
2018-04-23 14:00:00 13.4 32 Este 42 Este 0 1010.5 0 82
2018-04-23 13:00:00 13 32 Este 39 Nordeste 0 1011 0.3 85
2018-04-23 12:00:00 12.5 31 Nordeste 40 Nordeste 0 1010.9 0.8 87
2018-04-23 11:00:00 12.4 31 Este 43 Este 0 1010.5 0.7 86
2018-04-23 10:00:00 11.7 29 Nordeste 37 Este 0 1010.7 1.2 89
2018-04-23 09:00:00 11.8 29 Nordeste 35 Nordeste 0 1010.1 0.9 88
2018-04-23 08:00:00 12.1 18 Este 31 Este 0 1009.8 0.6 85
2018-04-23 07:00:00 11.9 11 Este 18 Sudeste 0 1009.5 0.4 84
2018-04-23 06:00:00 12 12 Sudeste 19 Sudeste 0 1009.2 -0.2 82
2018-04-23 05:00:00 11.9 11 Sudeste 18 Sudeste 0 1009.2 -0.3 84
2018-04-23 04:00:00 11.6 14 Sudeste 17 Sudeste 0 1009.1 -0.4 85
2018-04-23 03:00:00 11.5 14 Sudeste 16 Sudeste 0 1009.4 0.1 84
2018-04-23 02:00:00 11.5 13 Sudeste 15 Sudeste 0 1009.5 0.4 84
2018-04-23 01:00:00 11.7 13 Sudeste 17 Sudeste 0 1009.5 0.8 84
2018-04-23 00:00:00 11.6 13 Sudeste 15 Sudeste 0 1009.3 1.3 84
2018-04-22 23:00:00 11.8 9 Este 17 Este 0 1009.1 1.8 82
2018-04-22 22:00:00 12 14 Nordeste 17 Nordeste 0 1008.7 1.8 82
2018-04-22 21:00:00 12.4 8 Nordeste 12 Nordeste 0 1008 1.2 80
2018-04-22 20:00:00 14.3 5 Norte 12 Norte 0 1007.3 1 74
2018-04-22 19:00:00 13.8 3 Norte 15 Norte 0 1006.9 0.7 79
2018-04-22 18:00:00 13.2 7 Noroeste 23 Noroeste 0 1006.8 0.9 79
2018-04-22 17:00:00 13.7 15 Noroeste 28 Noroeste 0 1006.3 0.4 79
2018-04-22 16:00:00 13.5 22 Noroeste 31 Noroeste 0 1006.2 0.5 84
2018-04-22 15:00:00 13.3 14 Noroeste 28 Noroeste 0 1005.9 0 86
2018-04-22 14:00:00 13.3 22 Noroeste 40 Noroeste 0 1005.9 0.2 87
2018-04-22 13:00:00 12.9 30 Noroeste 37 Noroeste 0 1005.7 0.4 88
2018-04-22 12:00:00 12.9 27 Noroeste 33 Oeste 0 1005.9 0.8 89
2018-04-22 11:00:00 12.7 30 Oeste 39 Oeste 0 1005.7 0.8 90
2018-04-22 10:00:00 12.7 28 Noroeste 36 Noroeste 0 1005.3 1 91
2018-04-22 09:00:00 12.9 30 Oeste 34 Oeste 0 1005.1 0.5 91
2018-04-22 08:00:00 12.4 5 Noroeste 23 Oeste 0 1004.9 0.2 90
2018-04-22 07:00:00 12.5 18 Oeste 28 Oeste 0 1004.3 -0.5 90
2018-04-22 06:00:00 12.5 24 Oeste 42 Noroeste 0 1004.6 -0.6 89
2018-04-22 05:00:00 13 32 Oeste 41 Noroeste 0 1004.7 -0.6 87
2018-04-22 04:00:00 14.1 32 Oeste 38 Oeste 0 1004.8 -0.6 80
2018-04-22 03:00:00 15.7 26 Oeste 33 Sudoeste 0 1005.2 0.2 73
2018-04-22 02:00:00 15 23 Oeste 34 Oeste 0 1005.3 0.3 78
2018-04-22 01:00:00 14.8 24 Oeste 31 Oeste 0 1005.4 0.8 80
2018-04-22 00:00:00 14.5 28 Oeste 31 Oeste 0 1005 0.6 81